sensor_id;sensor_type;location;lat;lon;timestamp;temperature;humidity
41547;DHT22;27271;45.412;10.852;2022-11-20T00:03:28;5.70;99.90
41547;DHT22;27271;45.412;10.852;2022-11-20T00:06:50;5.70;99.90
41547;DHT22;27271;45.412;10.852;2022-11-20T00:10:35;5.60;99.90
41547;DHT22;27271;45.412;10.852;2022-11-20T00:14:21;5.60;99.90
41547;DHT22;27271;45.412;10.852;2022-11-20T00:17:46;5.60;99.90
41547;DHT22;27271;45.412;10.852;2022-11-20T00:21:19;5.50;99.90
41547;DHT22;27271;45.412;10.852;2022-11-20T00:24:52;5.40;99.90
41547;DHT22;27271;45.412;10.852;2022-11-20T00:28:20;5.40;99.90
41547;DHT22;27271;45.412;10.852;2022-11-20T00:31:46;5.30;99.90
41547;DHT22;27271;45.412;10.852;2022-11-20T00:35:20;5.30;99.90
41547;DHT22;27271;45.412;10.852;2022-11-20T00:38:52;5.30;99.90
41547;DHT22;27271;45.412;10.852;2022-11-20T00:42:22;5.30;99.90
41547;DHT22;27271;45.412;10.852;2022-11-20T00:45:49;5.20;99.90
41547;DHT22;27271;45.412;10.852;2022-11-20T00:49:26;5.10;99.90
41547;DHT22;27271;45.412;10.852;2022-11-20T00:53:03;5.00;99.90
41547;DHT22;27271;45.412;10.852;2022-11-20T00:56:26;4.90;99.90
41547;DHT22;27271;45.412;10.852;2022-11-20T01:00:01;4.90;99.90
41547;DHT22;27271;45.412;10.852;2022-11-20T01:03:38;4.80;99.90
41547;DHT22;27271;45.412;10.852;2022-11-20T01:07:10;4.80;99.90
41547;DHT22;27271;45.412;10.852;2022-11-20T01:11:17;4.70;99.90
41547;DHT22;27271;45.412;10.852;2022-11-20T01:14:47;4.60;99.90
41547;DHT22;27271;45.412;10.852;2022-11-20T01:18:15;4.50;99.90
41547;DHT22;27271;45.412;10.852;2022-11-20T01:29:24;4.40;99.90
41547;DHT22;27271;45.412;10.852;2022-11-20T01:32:48;4.40;99.90
41547;DHT22;27271;45.412;10.852;2022-11-20T01:37:05;4.40;99.90
41547;DHT22;27271;45.412;10.852;2022-11-20T01:40:30;4.40;99.90
41547;DHT22;27271;45.412;10.852;2022-11-20T01:43:52;4.40;99.90
41547;DHT22;27271;45.412;10.852;2022-11-20T01:47:21;4.30;99.90
41547;DHT22;27271;45.412;10.852;2022-11-20T01:51:03;4.30;99.90
41547;DHT22;27271;45.412;10.852;2022-11-20T01:55:13;4.30;99.90
41547;DHT22;27271;45.412;10.852;2022-11-20T01:58:40;4.30;99.90
41547;DHT22;27271;45.412;10.852;2022-11-20T02:02:04;4.20;99.90
41547;DHT22;27271;45.412;10.852;2022-11-20T02:05:34;4.20;99.90
41547;DHT22;27271;45.412;10.852;2022-11-20T02:08:57;4.10;99.90
41547;DHT22;27271;45.412;10.852;2022-11-20T02:12:19;4.10;99.90
41547;DHT22;27271;45.412;10.852;2022-11-20T02:16:00;4.00;99.90
41547;DHT22;27271;45.412;10.852;2022-11-20T02:19:30;4.00;99.90
41547;DHT22;27271;45.412;10.852;2022-11-20T02:26:54;4.00;99.90
41547;DHT22;27271;45.412;10.852;2022-11-20T02:30:21;4.10;99.90
41547;DHT22;27271;45.412;10.852;2022-11-20T02:38:51;4.10;99.90
41547;DHT22;27271;45.412;10.852;2022-11-20T02:42:13;4.10;99.90
41547;DHT22;27271;45.412;10.852;2022-11-20T02:45:36;4.10;99.90
41547;DHT22;27271;45.412;10.852;2022-11-20T02:49:02;4.20;99.90
41547;DHT22;27271;45.412;10.852;2022-11-20T02:52:27;4.20;99.90
41547;DHT22;27271;45.412;10.852;2022-11-20T02:55:51;4.00;99.90
41547;DHT22;27271;45.412;10.852;2022-11-20T02:59:13;3.90;99.90
41547;DHT22;27271;45.412;10.852;2022-11-20T03:03:01;4.00;99.90
41547;DHT22;27271;45.412;10.852;2022-11-20T03:06:42;4.00;99.90
41547;DHT22;27271;45.412;10.852;2022-11-20T03:10:11;4.10;99.90
41547;DHT22;27271;45.412;10.852;2022-11-20T03:13:55;4.20;99.90
41547;DHT22;27271;45.412;10.852;2022-11-20T03:17:31;4.20;99.90
41547;DHT22;27271;45.412;10.852;2022-11-20T03:21:13;4.30;99.90
41547;DHT22;27271;45.412;10.852;2022-11-20T03:25:04;4.40;99.90
41547;DHT22;27271;45.412;10.852;2022-11-20T03:28:27;4.50;99.90
41547;DHT22;27271;45.412;10.852;2022-11-20T03:31:52;4.50;99.90
41547;DHT22;27271;45.412;10.852;2022-11-20T03:35:29;4.80;99.90
41547;DHT22;27271;45.412;10.852;2022-11-20T03:43:02;5.00;99.90
41547;DHT22;27271;45.412;10.852;2022-11-20T03:46:35;5.10;99.90
41547;DHT22;27271;45.412;10.852;2022-11-20T03:50:21;5.30;99.90
41547;DHT22;27271;45.412;10.852;2022-11-20T03:53:56;5.40;99.90
41547;DHT22;27271;45.412;10.852;2022-11-20T03:57:34;5.50;99.90
41547;DHT22;27271;45.412;10.852;2022-11-20T04:01:12;5.30;99.90
41547;DHT22;27271;45.412;10.852;2022-11-20T04:05:01;5.10;99.90
41547;DHT22;27271;45.412;10.852;2022-11-20T04:08:29;5.00;99.90
41547;DHT22;27271;45.412;10.852;2022-11-20T04:12:13;4.80;99.90
41547;DHT22;27271;45.412;10.852;2022-11-20T04:15:48;4.60;99.90
41547;DHT22;27271;45.412;10.852;2022-11-20T04:19:38;4.40;99.90
41547;DHT22;27271;45.412;10.852;2022-11-20T04:23:01;4.30;99.90
41547;DHT22;27271;45.412;10.852;2022-11-20T04:26:43;4.30;99.90
41547;DHT22;27271;45.412;10.852;2022-11-20T04:30:34;4.20;99.90
41547;DHT22;27271;45.412;10.852;2022-11-20T04:34:19;4.00;99.90
41547;DHT22;27271;45.412;10.852;2022-11-20T04:37:50;3.90;99.90
41547;DHT22;27271;45.412;10.852;2022-11-20T04:41:27;3.70;99.90
41547;DHT22;27271;45.412;10.852;2022-11-20T04:49:25;3.40;99.90
41547;DHT22;27271;45.412;10.852;2022-11-20T04:52:48;3.30;99.90
41547;DHT22;27271;45.412;10.852;2022-11-20T04:56:18;3.30;99.90
41547;DHT22;27271;45.412;10.852;2022-11-20T04:59:55;3.20;99.90
41547;DHT22;27271;45.412;10.852;2022-11-20T05:17:59;2.60;99.90
41547;DHT22;27271;45.412;10.852;2022-11-20T05:22:26;2.50;99.90
41547;DHT22;27271;45.412;10.852;2022-11-20T05:26:25;2.40;99.90
41547;DHT22;27271;45.412;10.852;2022-11-20T05:29:47;2.30;99.90
41547;DHT22;27271;45.412;10.852;2022-11-20T05:33:13;2.20;99.90
41547;DHT22;27271;45.412;10.852;2022-11-20T05:36:39;2.20;99.90
41547;DHT22;27271;45.412;10.852;2022-11-20T05:49:50;1.90;99.90
41547;DHT22;27271;45.412;10.852;2022-11-20T05:58:52;1.90;99.90
41547;DHT22;27271;45.412;10.852;2022-11-20T06:02:29;1.90;99.90
41547;DHT22;27271;45.412;10.852;2022-11-20T06:06:08;1.90;99.90
41547;DHT22;27271;45.412;10.852;2022-11-20T06:09:54;1.80;99.90
41547;DHT22;27271;45.412;10.852;2022-11-20T06:13:26;1.80;99.90
41547;DHT22;27271;45.412;10.852;2022-11-20T06:17:14;1.70;99.90
41547;DHT22;27271;45.412;10.852;2022-11-20T06:20:45;1.70;99.90
41547;DHT22;27271;45.412;10.852;2022-11-20T06:24:10;1.70;99.90
41547;DHT22;27271;45.412;10.852;2022-11-20T06:27:38;1.70;99.90
41547;DHT22;27271;45.412;10.852;2022-11-20T06:31:02;1.80;99.90
41547;DHT22;27271;45.412;10.852;2022-11-20T06:34:33;1.70;99.90
41547;DHT22;27271;45.412;10.852;2022-11-20T06:37:55;1.80;99.90
41547;DHT22;27271;45.412;10.852;2022-11-20T06:41:20;1.80;99.90
41547;DHT22;27271;45.412;10.852;2022-11-20T06:44:45;1.80;99.90
41547;DHT22;27271;45.412;10.852;2022-11-20T06:48:08;1.80;99.90
41547;DHT22;27271;45.412;10.852;2022-11-20T06:51:32;1.90;99.90
41547;DHT22;27271;45.412;10.852;2022-11-20T06:55:01;1.90;99.90
41547;DHT22;27271;45.412;10.852;2022-11-20T06:58:49;1.90;99.90
41547;DHT22;27271;45.412;10.852;2022-11-20T07:02:11;2.00;99.90
41547;DHT22;27271;45.412;10.852;2022-11-20T07:05:41;2.10;99.90
41547;DHT22;27271;45.412;10.852;2022-11-20T07:09:37;2.20;99.90
41547;DHT22;27271;45.412;10.852;2022-11-20T07:13:11;2.40;99.90
41547;DHT22;27271;45.412;10.852;2022-11-20T07:16:34;3.00;99.90
41547;DHT22;27271;45.412;10.852;2022-11-20T07:19:57;4.20;99.90
41547;DHT22;27271;45.412;10.852;2022-11-20T07:23:24;5.90;99.90
41547;DHT22;27271;45.412;10.852;2022-11-20T07:26:54;7.70;99.90
41547;DHT22;27271;45.412;10.852;2022-11-20T07:35:51;11.20;99.90
41547;DHT22;27271;45.412;10.852;2022-11-20T07:48:28;15.30;82.20
41547;DHT22;27271;45.412;10.852;2022-11-20T07:56:56;16.30;74.10
41547;DHT22;27271;45.412;10.852;2022-11-20T08:14:55;18.80;63.30
41547;DHT22;27271;45.412;10.852;2022-11-20T08:19:17;19.30;62.30
41547;DHT22;27271;45.412;10.852;2022-11-20T08:23:09;19.30;59.10
41547;DHT22;27271;45.412;10.852;2022-11-20T08:36:42;20.70;54.30
41547;DHT22;27271;45.412;10.852;2022-11-20T08:40:05;20.90;54.50
41547;DHT22;27271;45.412;10.852;2022-11-20T08:57:51;21.30;46.50
41547;DHT22;27271;45.412;10.852;2022-11-20T09:06:24;21.40;47.00
41547;DHT22;27271;45.412;10.852;2022-11-20T09:14:53;21.30;49.40
41547;DHT22;27271;45.412;10.852;2022-11-20T09:23:35;21.00;52.60
41547;DHT22;27271;45.412;10.852;2022-11-20T09:27:05;21.10;52.80
41547;DHT22;27271;45.412;10.852;2022-11-20T09:32:07;21.20;52.30
41547;DHT22;27271;45.412;10.852;2022-11-20T09:35:30;21.10;52.50
41547;DHT22;27271;45.412;10.852;2022-11-20T09:39:21;20.90;53.50
41547;DHT22;27271;45.412;10.852;2022-11-20T10:35:44;18.30;63.10
41547;DHT22;27271;45.412;10.852;2022-11-20T10:44:20;17.60;63.80
41547;DHT22;27271;45.412;10.852;2022-11-20T10:52:56;16.70;66.30
41547;DHT22;27271;45.412;10.852;2022-11-20T10:56:31;16.70;64.90
41547;DHT22;27271;45.412;10.852;2022-11-20T11:00:21;16.70;70.80
41547;DHT22;27271;45.412;10.852;2022-11-20T11:07:55;16.50;70.90
41547;DHT22;27271;45.412;10.852;2022-11-20T11:11:42;16.60;70.90
41547;DHT22;27271;45.412;10.852;2022-11-20T11:16:23;16.50;67.80
41547;DHT22;27271;45.412;10.852;2022-11-20T11:35:23;15.60;72.10
41547;DHT22;27271;45.412;10.852;2022-11-20T11:39:03;15.20;72.80
41547;DHT22;27271;45.412;10.852;2022-11-20T11:43:36;15.10;78.20
41547;DHT22;27271;45.412;10.852;2022-11-20T12:02:35;14.70;78.70
41547;DHT22;27271;45.412;10.852;2022-11-20T12:06:28;14.50;78.20
41547;DHT22;27271;45.412;10.852;2022-11-20T12:23:09;14.20;83.80
41547;DHT22;27271;45.412;10.852;2022-11-20T12:44:47;13.70;85.10
41547;DHT22;27271;45.412;10.852;2022-11-20T12:54:11;13.30;85.50
41547;DHT22;27271;45.412;10.852;2022-11-20T13:01:26;13.30;81.20
41547;DHT22;27271;45.412;10.852;2022-11-20T13:09:33;13.20;82.50
41547;DHT22;27271;45.412;10.852;2022-11-20T13:21:34;13.20;81.00
41547;DHT22;27271;45.412;10.852;2022-11-20T13:38:17;13.10;80.70
41547;DHT22;27271;45.412;10.852;2022-11-20T13:46:05;12.90;82.80
41547;DHT22;27271;45.412;10.852;2022-11-20T13:49:57;13.00;84.80
41547;DHT22;27271;45.412;10.852;2022-11-20T14:01:29;12.70;87.70
41547;DHT22;27271;45.412;10.852;2022-11-20T14:04:59;12.70;85.70
41547;DHT22;27271;45.412;10.852;2022-11-20T14:08:47;12.60;86.20
41547;DHT22;27271;45.412;10.852;2022-11-20T14:12:37;12.50;86.20
41547;DHT22;27271;45.412;10.852;2022-11-20T14:16:32;12.30;88.00
41547;DHT22;27271;45.412;10.852;2022-11-20T14:20:32;12.20;90.00
41547;DHT22;27271;45.412;10.852;2022-11-20T14:24:24;11.90;91.60
41547;DHT22;27271;45.412;10.852;2022-11-20T14:28:24;11.70;93.00
41547;DHT22;27271;45.412;10.852;2022-11-20T14:32:30;11.50;93.00
41547;DHT22;27271;45.412;10.852;2022-11-20T14:36:20;11.30;93.90
41547;DHT22;27271;45.412;10.852;2022-11-20T14:39:52;11.20;94.60
41547;DHT22;27271;45.412;10.852;2022-11-20T14:43:49;11.20;96.10
41547;DHT22;27271;45.412;10.852;2022-11-20T14:47:46;11.00;95.40
41547;DHT22;27271;45.412;10.852;2022-11-20T14:51:41;10.80;96.60
41547;DHT22;27271;45.412;10.852;2022-11-20T15:01:06;10.60;98.90
41547;DHT22;27271;45.412;10.852;2022-11-20T15:05:06;10.30;99.90
41547;DHT22;27271;45.412;10.852;2022-11-20T15:14:15;10.00;99.90
41547;DHT22;27271;45.412;10.852;2022-11-20T15:18:30;9.80;99.90
41547;DHT22;27271;45.412;10.852;2022-11-20T15:22:12;9.50;99.90
41547;DHT22;27271;45.412;10.852;2022-11-20T15:26:50;9.30;99.90
41547;DHT22;27271;45.412;10.852;2022-11-20T15:31:03;9.20;99.90
41547;DHT22;27271;45.412;10.852;2022-11-20T15:35:34;8.90;99.90
41547;DHT22;27271;45.412;10.852;2022-11-20T15:40:17;8.60;99.90
41547;DHT22;27271;45.412;10.852;2022-11-20T15:44:23;8.40;99.90
41547;DHT22;27271;45.412;10.852;2022-11-20T15:59:33;7.60;99.90
41547;DHT22;27271;45.412;10.852;2022-11-20T16:08:58;7.10;99.90
41547;DHT22;27271;45.412;10.852;2022-11-20T16:12:49;7.00;99.90
41547;DHT22;27271;45.412;10.852;2022-11-20T16:17:02;6.90;99.90
41547;DHT22;27271;45.412;10.852;2022-11-20T16:20:27;6.80;99.90
41547;DHT22;27271;45.412;10.852;2022-11-20T16:24:16;6.70;99.90
41547;DHT22;27271;45.412;10.852;2022-11-20T16:27:46;6.60;99.90
41547;DHT22;27271;45.412;10.852;2022-11-20T16:36:16;6.40;99.90
41547;DHT22;27271;45.412;10.852;2022-11-20T16:41:12;6.30;99.90
41547;DHT22;27271;45.412;10.852;2022-11-20T16:46:25;6.20;99.90
41547;DHT22;27271;45.412;10.852;2022-11-20T16:50:53;6.20;99.90
41547;DHT22;27271;45.412;10.852;2022-11-20T16:55:34;6.10;99.90
41547;DHT22;27271;45.412;10.852;2022-11-20T17:04:35;6.00;99.90
41547;DHT22;27271;45.412;10.852;2022-11-20T17:09:01;6.00;99.90
41547;DHT22;27271;45.412;10.852;2022-11-20T17:12:30;5.90;99.90
41547;DHT22;27271;45.412;10.852;2022-11-20T17:16:26;5.80;99.90
41547;DHT22;27271;45.412;10.852;2022-11-20T17:24:17;5.70;99.90
41547;DHT22;27271;45.412;10.852;2022-11-20T17:27:45;5.70;99.90
41547;DHT22;27271;45.412;10.852;2022-11-20T17:32:22;5.60;99.90
41547;DHT22;27271;45.412;10.852;2022-11-20T17:41:16;5.50;99.90
41547;DHT22;27271;45.412;10.852;2022-11-20T17:44:46;5.40;99.90
41547;DHT22;27271;45.412;10.852;2022-11-20T17:48:38;5.30;99.90
41547;DHT22;27271;45.412;10.852;2022-11-20T17:52:44;5.30;99.90
41547;DHT22;27271;45.412;10.852;2022-11-20T17:56:10;5.20;99.90
41547;DHT22;27271;45.412;10.852;2022-11-20T17:59:54;5.20;99.90
41547;DHT22;27271;45.412;10.852;2022-11-20T18:03:19;5.20;99.90
41547;DHT22;27271;45.412;10.852;2022-11-20T18:06:56;5.20;99.90
41547;DHT22;27271;45.412;10.852;2022-11-20T18:10:22;5.20;99.90
41547;DHT22;27271;45.412;10.852;2022-11-20T18:14:02;5.20;99.90
41547;DHT22;27271;45.412;10.852;2022-11-20T18:18:01;5.20;99.90
41547;DHT22;27271;45.412;10.852;2022-11-20T18:27:23;5.10;99.90
41547;DHT22;27271;45.412;10.852;2022-11-20T18:30:56;5.10;99.90
41547;DHT22;27271;45.412;10.852;2022-11-20T18:34:21;5.00;99.90
41547;DHT22;27271;45.412;10.852;2022-11-20T18:37:49;5.00;99.90
41547;DHT22;27271;45.412;10.852;2022-11-20T18:41:16;4.90;99.90
41547;DHT22;27271;45.412;10.852;2022-11-20T18:44:59;4.90;99.90
41547;DHT22;27271;45.412;10.852;2022-11-20T18:53:25;4.80;99.90
41547;DHT22;27271;45.412;10.852;2022-11-20T19:01:51;4.80;99.90
41547;DHT22;27271;45.412;10.852;2022-11-20T19:05:21;4.70;99.90
41547;DHT22;27271;45.412;10.852;2022-11-20T19:09:22;4.70;99.90
41547;DHT22;27271;45.412;10.852;2022-11-20T19:13:26;4.70;99.90
41547;DHT22;27271;45.412;10.852;2022-11-20T19:17:04;4.60;99.90
41547;DHT22;27271;45.412;10.852;2022-11-20T19:20:58;4.60;99.90
41547;DHT22;27271;45.412;10.852;2022-11-20T19:30:08;4.50;99.90
41547;DHT22;27271;45.412;10.852;2022-11-20T19:34:22;4.40;99.90
41547;DHT22;27271;45.412;10.852;2022-11-20T19:43:33;4.40;99.90
41547;DHT22;27271;45.412;10.852;2022-11-20T19:47:29;4.40;99.90
41547;DHT22;27271;45.412;10.852;2022-11-20T19:51:46;4.50;99.90
41547;DHT22;27271;45.412;10.852;2022-11-20T19:55:29;4.40;99.90
41547;DHT22;27271;45.412;10.852;2022-11-20T20:04:41;4.40;99.90
41547;DHT22;27271;45.412;10.852;2022-11-20T20:26:07;4.20;99.90
41547;DHT22;27271;45.412;10.852;2022-11-20T20:29:39;4.10;99.90
41547;DHT22;27271;45.412;10.852;2022-11-20T20:33:31;4.00;99.90
41547;DHT22;27271;45.412;10.852;2022-11-20T20:41:11;3.80;99.90
41547;DHT22;27271;45.412;10.852;2022-11-20T20:54:06;3.70;99.90
41547;DHT22;27271;45.412;10.852;2022-11-20T21:05:39;3.70;99.90
41547;DHT22;27271;45.412;10.852;2022-11-20T21:09:47;3.70;99.90
41547;DHT22;27271;45.412;10.852;2022-11-20T21:14:27;3.70;99.90
41547;DHT22;27271;45.412;10.852;2022-11-20T21:33:08;3.70;99.90
41547;DHT22;27271;45.412;10.852;2022-11-20T21:36:42;3.70;99.90
41547;DHT22;27271;45.412;10.852;2022-11-20T21:40:12;3.70;99.90
41547;DHT22;27271;45.412;10.852;2022-11-20T21:48:56;3.50;99.90
41547;DHT22;27271;45.412;10.852;2022-11-20T21:52:32;3.40;99.90
41547;DHT22;27271;45.412;10.852;2022-11-20T21:56:46;3.40;99.90
41547;DHT22;27271;45.412;10.852;2022-11-20T22:00:09;3.40;99.90
41547;DHT22;27271;45.412;10.852;2022-11-20T22:03:36;3.40;99.90
41547;DHT22;27271;45.412;10.852;2022-11-20T22:07:00;3.30;99.90
41547;DHT22;27271;45.412;10.852;2022-11-20T22:10:23;3.30;99.90
41547;DHT22;27271;45.412;10.852;2022-11-20T22:13:46;3.30;99.90
41547;DHT22;27271;45.412;10.852;2022-11-20T22:17:33;3.30;99.90
41547;DHT22;27271;45.412;10.852;2022-11-20T22:21:14;3.20;99.90
41547;DHT22;27271;45.412;10.852;2022-11-20T22:24:58;3.20;99.90
41547;DHT22;27271;45.412;10.852;2022-11-20T22:28:22;3.20;99.90
41547;DHT22;27271;45.412;10.852;2022-11-20T22:32:33;3.10;99.90
41547;DHT22;27271;45.412;10.852;2022-11-20T22:36:04;3.10;99.90
41547;DHT22;27271;45.412;10.852;2022-11-20T22:39:28;3.10;99.90
41547;DHT22;27271;45.412;10.852;2022-11-20T22:43:18;3.10;99.90
41547;DHT22;27271;45.412;10.852;2022-11-20T22:46:42;3.10;99.90
41547;DHT22;27271;45.412;10.852;2022-11-20T22:50:09;3.20;99.90
41547;DHT22;27271;45.412;10.852;2022-11-20T22:53:32;3.30;99.90
41547;DHT22;27271;45.412;10.852;2022-11-20T22:56:54;3.50;99.90
41547;DHT22;27271;45.412;10.852;2022-11-20T23:00:17;3.60;99.90
41547;DHT22;27271;45.412;10.852;2022-11-20T23:03:41;3.70;99.90
41547;DHT22;27271;45.412;10.852;2022-11-20T23:07:05;3.80;99.90
41547;DHT22;27271;45.412;10.852;2022-11-20T23:10:28;3.90;99.90
41547;DHT22;27271;45.412;10.852;2022-11-20T23:13:59;4.00;99.90
41547;DHT22;27271;45.412;10.852;2022-11-20T23:17:22;4.00;99.90
41547;DHT22;27271;45.412;10.852;2022-11-20T23:20:48;4.10;99.90
41547;DHT22;27271;45.412;10.852;2022-11-20T23:24:12;4.10;99.90
41547;DHT22;27271;45.412;10.852;2022-11-20T23:27:35;4.10;99.90
41547;DHT22;27271;45.412;10.852;2022-11-20T23:30:58;4.10;99.90
41547;DHT22;27271;45.412;10.852;2022-11-20T23:34:22;4.20;99.90
41547;DHT22;27271;45.412;10.852;2022-11-20T23:37:44;4.20;99.90
41547;DHT22;27271;45.412;10.852;2022-11-20T23:41:27;4.20;99.90
41547;DHT22;27271;45.412;10.852;2022-11-20T23:44:53;4.10;99.90
41547;DHT22;27271;45.412;10.852;2022-11-20T23:48:16;4.00;99.90
41547;DHT22;27271;45.412;10.852;2022-11-20T23:51:39;3.80;99.90
41547;DHT22;27271;45.412;10.852;2022-11-20T23:55:01;3.80;99.90
41547;DHT22;27271;45.412;10.852;2022-11-20T23:58:25;3.70;99.90
